createdAt,value
2015-07-06T00:00:11.183Z,65
2015-07-06T00:00:29.417Z,65
2015-07-06T00:00:47.652Z,65
2015-07-06T00:01:05.886Z,65
2015-07-06T00:01:24.138Z,65
2015-07-06T00:01:42.372Z,65
2015-07-06T00:02:00.607Z,65
2015-07-06T00:02:18.859Z,65
2015-07-06T00:02:37.093Z,65
2015-07-06T00:02:55.343Z,65
2015-07-06T00:03:13.577Z,65
2015-07-06T00:03:31.814Z,65
2015-07-06T00:03:50.048Z,65
2015-07-06T00:04:08.298Z,65
2015-07-06T00:04:26.536Z,65
2015-07-06T00:04:44.770Z,65
2015-07-06T00:05:03.020Z,65
2015-07-06T00:05:21.254Z,65
2015-07-06T00:05:39.490Z,65
2015-07-06T00:05:57.724Z,65
2015-07-06T00:06:15.958Z,65
2015-07-06T00:06:34.211Z,66
2015-07-06T00:06:52.461Z,66
2015-07-06T00:07:10.696Z,66
2015-07-06T00:07:28.930Z,66
2015-07-06T00:07:47.167Z,66
2015-07-06T00:08:05.417Z,66
2015-07-06T00:08:23.651Z,66
2015-07-06T00:08:41.887Z,66
2015-07-06T00:09:00.122Z,67
2015-07-06T00:09:18.356Z,67
2015-07-06T00:09:36.606Z,67
2015-07-06T00:09:54.826Z,67
2015-07-06T00:10:13.060Z,67
2015-07-06T00:10:31.295Z,67
2015-07-06T00:10:49.532Z,68
2015-07-06T00:11:07.782Z,68
2015-07-06T00:11:26.016Z,68
2015-07-06T00:11:44.251Z,69
2015-07-06T00:12:02.486Z,69
2015-07-06T00:12:20.736Z,69
2015-07-06T00:12:38.970Z,70
2015-07-06T00:12:57.207Z,69
2015-07-06T00:13:15.441Z,69
2015-07-06T00:13:33.691Z,69
2015-07-06T00:13:51.926Z,70
2015-07-06T00:14:10.162Z,69
2015-07-06T00:14:28.396Z,69
2015-07-06T00:14:46.646Z,69
2015-07-06T00:15:04.883Z,70
2015-07-06T00:15:23.117Z,70
2015-07-06T00:15:41.351Z,70
2015-07-06T00:15:59.601Z,70
2015-07-06T00:16:17.838Z,70
2015-07-06T00:16:36.088Z,70
2015-07-06T00:16:54.322Z,70
2015-07-06T00:17:12.575Z,70
2015-07-06T00:17:30.810Z,70
2015-07-06T00:17:49.060Z,70
2015-07-06T00:18:07.294Z,70
2015-07-06T00:18:25.530Z,70
2015-07-06T00:18:43.765Z,70
2015-07-06T00:19:02.015Z,70
2015-07-06T00:19:20.251Z,70
2015-07-06T00:19:38.485Z,70
2015-07-06T00:19:56.720Z,70
2015-07-06T00:20:14.954Z,70
2015-07-06T00:20:33.206Z,70
2015-07-06T00:20:51.441Z,70
2015-07-06T00:21:09.675Z,70
2015-07-06T00:21:27.911Z,70
2015-07-06T00:21:46.146Z,70
2015-07-06T00:22:04.380Z,71
2015-07-06T00:22:22.614Z,70
2015-07-06T00:22:40.851Z,71
2015-07-06T00:22:59.101Z,71
2015-07-06T00:23:17.335Z,71
2015-07-06T00:23:35.572Z,71
2015-07-06T00:23:53.806Z,71
2015-07-06T00:24:12.040Z,71
2015-07-06T00:24:30.290Z,72
2015-07-06T00:24:48.527Z,72
2015-07-06T00:25:06.777Z,72
2015-07-06T00:25:25.011Z,72
2015-07-06T00:25:43.247Z,72
2015-07-06T00:26:01.497Z,72
2015-07-06T00:26:19.732Z,72
2015-07-06T00:26:37.966Z,72
2015-07-06T00:26:56.203Z,72
2015-07-06T00:27:14.437Z,72
2015-07-06T00:27:32.671Z,72
2015-07-06T00:27:50.923Z,72
2015-07-06T00:28:09.158Z,72
2015-07-06T00:28:27.392Z,72
2015-07-06T00:28:45.626Z,72
2015-07-06T00:29:03.863Z,72
2015-07-06T00:29:22.113Z,73
2015-07-06T00:29:40.347Z,73
2015-07-06T00:29:58.585Z,73
2015-07-06T00:30:16.819Z,73
2015-07-06T00:30:35.053Z,73
2015-07-06T00:30:53.303Z,73
2015-07-06T00:31:11.539Z,73
2015-07-06T00:31:29.773Z,73
2015-07-06T00:31:48.007Z,73
2015-07-06T00:32:06.245Z,73
2015-07-06T00:32:24.495Z,73
2015-07-06T00:32:42.745Z,73
2015-07-06T00:33:00.979Z,73
2015-07-06T00:33:19.215Z,73
2015-07-06T00:33:37.449Z,72
2015-07-06T00:33:55.683Z,73
2015-07-06T00:34:13.936Z,73
2015-07-06T00:34:32.171Z,72
2015-07-06T00:34:50.405Z,73
2015-07-06T00:35:08.639Z,72
2015-07-06T00:35:26.890Z,73
2015-07-06T00:35:45.125Z,73
2015-07-06T00:36:03.359Z,72
2015-07-06T00:36:21.597Z,73
2015-07-06T00:36:39.831Z,72
2015-07-06T00:36:58.081Z,72
2015-07-06T00:37:16.315Z,72
2015-07-06T00:37:34.552Z,72
2015-07-06T00:37:52.786Z,72
2015-07-06T00:38:11.020Z,72
2015-07-06T00:38:29.272Z,72
2015-07-06T00:38:47.507Z,72
2015-07-06T00:39:05.741Z,72
2015-07-06T00:39:23.976Z,72
2015-07-06T00:39:42.211Z,72
2015-07-06T00:40:00.461Z,72
2015-07-06T00:40:18.695Z,72
2015-07-06T00:40:36.932Z,72
2015-07-06T00:40:55.166Z,72
2015-07-06T00:41:13.416Z,72
2015-07-06T00:41:31.650Z,72
2015-07-06T00:41:49.888Z,73
2015-07-06T00:42:08.122Z,73
2015-07-06T00:42:26.388Z,72
2015-07-06T00:42:44.609Z,72
2015-07-06T00:43:02.843Z,72
2015-07-06T00:43:21.093Z,72
2015-07-06T00:43:39.312Z,72
2015-07-06T00:43:57.564Z,73
2015-07-06T00:44:15.798Z,72
2015-07-06T00:44:34.032Z,73
2015-07-06T00:44:52.284Z,72
2015-07-06T00:45:10.519Z,73
2015-07-06T00:45:28.753Z,73
2015-07-06T00:45:46.988Z,73
2015-07-06T00:46:05.240Z,73
2015-07-06T00:46:23.490Z,73
2015-07-06T00:46:41.708Z,73
2015-07-06T00:46:59.945Z,73
2015-07-06T00:47:18.195Z,73
2015-07-06T00:47:36.429Z,73
2015-07-06T00:47:54.663Z,72
2015-07-06T00:48:12.900Z,72
2015-07-06T00:48:31.150Z,72
2015-07-06T00:48:49.384Z,72
2015-07-06T00:49:07.622Z,72
2015-07-06T00:49:25.856Z,73
2015-07-06T00:49:44.090Z,73
2015-07-06T00:50:02.340Z,73
2015-07-06T00:50:20.576Z,73
2015-07-06T00:50:38.810Z,73
2015-07-06T00:50:57.044Z,73
2015-07-06T00:51:15.297Z,72
2015-07-06T00:51:33.532Z,73
2015-07-06T00:51:51.782Z,73
2015-07-06T00:52:10.001Z,73
2015-07-06T00:52:28.236Z,73
2015-07-06T00:52:46.470Z,73
2015-07-06T00:53:04.705Z,73
2015-07-06T00:53:22.957Z,73
2015-07-06T00:53:41.191Z,73
2015-07-06T00:53:59.425Z,73
2015-07-06T00:54:17.660Z,73
2015-07-06T00:54:35.896Z,73
2015-07-06T00:54:54.146Z,73
2015-07-06T00:55:12.381Z,73
2015-07-06T00:55:30.617Z,73
2015-07-06T00:55:48.851Z,73
2015-07-06T00:56:07.101Z,73
2015-07-06T00:56:25.336Z,73
2015-07-06T00:56:43.572Z,73
2015-07-06T00:57:01.806Z,73
2015-07-06T00:57:20.041Z,73
2015-07-06T00:57:38.293Z,73
2015-07-06T00:57:56.527Z,74
2015-07-06T00:58:14.762Z,74
2015-07-06T00:58:32.996Z,74
2015-07-06T00:58:51.248Z,74
2015-07-06T00:59:09.482Z,74
2015-07-06T00:59:27.732Z,74
2015-07-06T00:59:45.953Z,74
2015-07-06T01:00:04.203Z,74
2015-07-06T01:00:22.437Z,74
2015-07-06T01:00:40.687Z,74
2015-07-06T01:00:58.924Z,74
2015-07-06T01:01:17.158Z,74
2015-07-06T01:01:35.393Z,74
2015-07-06T01:01:53.646Z,74
2015-07-06T01:02:11.880Z,74
2015-07-06T01:02:30.114Z,74
2015-07-06T01:02:48.349Z,74
2015-07-06T01:03:06.584Z,74
2015-07-06T01:03:24.834Z,74
2015-07-06T01:03:43.068Z,74
2015-07-06T01:04:01.305Z,74
2015-07-06T01:04:19.539Z,74
2015-07-06T01:04:37.774Z,74
2015-07-06T01:04:56.008Z,75
2015-07-06T01:05:14.245Z,75
2015-07-06T01:05:32.480Z,75
2015-07-06T01:05:50.730Z,75
2015-07-06T01:06:08.966Z,75
2015-07-06T01:06:27.200Z,75
2015-07-06T01:06:45.435Z,75
2015-07-06T01:07:03.669Z,75
2015-07-06T01:07:21.921Z,75
2015-07-06T01:07:40.156Z,75
2015-07-06T01:07:58.390Z,75
2015-07-06T01:08:16.626Z,75
2015-07-06T01:08:34.861Z,75
2015-07-06T01:08:53.095Z,75
2015-07-06T01:09:11.361Z,75
2015-07-06T01:09:29.597Z,75
2015-07-06T01:09:47.831Z,75
2015-07-06T01:10:06.081Z,75
2015-07-06T01:10:24.318Z,75
2015-07-06T01:10:42.552Z,75
2015-07-06T01:11:00.787Z,75
2015-07-06T01:11:19.021Z,75
2015-07-06T01:11:37.273Z,75
2015-07-06T01:11:55.507Z,75
2015-07-06T01:12:13.757Z,75
2015-07-06T01:12:31.994Z,75
2015-07-06T01:12:50.228Z,75
2015-07-06T01:13:08.478Z,75
2015-07-06T01:13:26.712Z,75
2015-07-06T01:13:44.949Z,75
2015-07-06T01:14:03.183Z,75
2015-07-06T01:14:21.418Z,75
2015-07-06T01:14:39.671Z,75
2015-07-06T01:14:57.905Z,75
2015-07-06T01:15:16.139Z,75
2015-07-06T01:15:34.374Z,76
2015-07-06T01:15:52.609Z,76
2015-07-06T01:16:10.843Z,76
2015-07-06T01:16:29.078Z,76
2015-07-06T01:16:47.330Z,76
2015-07-06T01:17:05.564Z,76
2015-07-06T01:17:23.799Z,76
2015-07-06T01:17:42.033Z,76
2015-07-06T01:18:00.285Z,75
2015-07-06T01:18:18.535Z,75
2015-07-06T01:18:36.754Z,74
2015-07-06T01:18:55.006Z,75
2015-07-06T01:19:13.240Z,74
2015-07-06T01:19:31.474Z,74
2015-07-06T01:19:49.709Z,75
2015-07-06T01:20:07.945Z,75
2015-07-06T01:20:26.180Z,75
2015-07-06T01:20:44.430Z,75
2015-07-06T01:21:02.666Z,75
2015-07-06T01:21:20.900Z,75
2015-07-06T01:21:39.135Z,75
2015-07-06T01:21:57.385Z,75
2015-07-06T01:22:15.622Z,75
2015-07-06T01:22:33.856Z,75
2015-07-06T01:22:52.091Z,75
2015-07-06T01:23:10.342Z,75
2015-07-06T01:23:28.576Z,75
2015-07-06T01:23:46.811Z,75
2015-07-06T01:24:05.045Z,75
2015-07-06T01:24:23.281Z,75
2015-07-06T01:24:41.531Z,75
2015-07-06T01:24:59.766Z,75
2015-07-06T01:25:18.003Z,75
2015-07-06T01:25:36.237Z,75
2015-07-06T01:25:54.487Z,75
2015-07-06T01:26:12.722Z,75
2015-07-06T01:26:30.973Z,75
2015-07-06T01:26:49.207Z,75
2015-07-06T01:27:07.442Z,76
2015-07-06T01:27:25.678Z,76
2015-07-06T01:27:43.912Z,76
2015-07-06T01:28:02.162Z,76
2015-07-06T01:28:20.397Z,76
2015-07-06T01:28:38.634Z,76
2015-07-06T01:28:56.868Z,76
2015-07-06T01:29:15.103Z,76
2015-07-06T01:29:33.354Z,75
2015-07-06T01:29:51.573Z,75
2015-07-06T01:30:09.807Z,75
2015-07-06T01:30:28.057Z,75
2015-07-06T01:30:46.294Z,74
2015-07-06T01:31:04.529Z,74
2015-07-06T01:31:22.763Z,74
2015-07-06T01:31:40.999Z,75
2015-07-06T01:31:59.234Z,75
2015-07-06T01:32:17.468Z,75
2015-07-06T01:32:35.718Z,76
2015-07-06T01:32:53.954Z,76
2015-07-06T01:33:12.188Z,76
2015-07-06T01:33:30.422Z,76
2015-07-06T01:33:48.660Z,76
2015-07-06T01:34:06.910Z,76
2015-07-06T01:34:25.144Z,76
2015-07-06T01:34:43.378Z,76
2015-07-06T01:35:01.629Z,76
2015-07-06T01:35:19.864Z,76
2015-07-06T01:35:38.098Z,76
2015-07-06T01:35:56.351Z,77
2015-07-06T01:36:14.586Z,77
2015-07-06T01:36:32.820Z,77
2015-07-06T01:36:51.054Z,77
2015-07-06T01:37:09.291Z,77
2015-07-06T01:37:27.525Z,77
2015-07-06T01:37:45.775Z,77
2015-07-06T01:38:04.011Z,77
2015-07-06T01:38:22.246Z,77
2015-07-06T01:38:40.480Z,77
2015-07-06T01:38:58.730Z,77
2015-07-06T01:39:16.967Z,77
2015-07-06T01:39:35.201Z,77
2015-07-06T01:39:53.435Z,77
2015-07-06T01:40:11.672Z,77
2015-07-06T01:40:29.906Z,77
2015-07-06T01:40:48.156Z,78
2015-07-06T01:41:06.390Z,78
2015-07-06T01:41:24.627Z,78
2015-07-06T01:41:42.861Z,78
2015-07-06T01:42:01.096Z,78
2015-07-06T01:42:19.333Z,78
2015-07-06T01:42:37.583Z,78
2015-07-06T01:42:55.817Z,78
2015-07-06T01:43:14.052Z,78
2015-07-06T01:43:32.287Z,78
2015-07-06T01:43:50.521Z,78
2015-07-06T01:44:08.771Z,78
2015-07-06T01:44:27.008Z,78
2015-07-06T01:44:45.242Z,78
2015-07-06T01:45:03.492Z,78
2015-07-06T01:45:21.711Z,78
2015-07-06T01:45:39.947Z,78
2015-07-06T01:45:58.182Z,78
2015-07-06T01:46:16.416Z,78
2015-07-06T01:46:34.668Z,78
2015-07-06T01:46:52.902Z,78
2015-07-06T01:47:11.137Z,79
2015-07-06T01:47:29.371Z,79
2015-07-06T01:47:47.609Z,79
2015-07-06T01:48:05.843Z,79
2015-07-06T01:48:24.077Z,79
2015-07-06T01:48:42.329Z,79
2015-07-06T01:49:00.564Z,79
2015-07-06T01:49:18.798Z,79
2015-07-06T01:49:37.032Z,79
2015-07-06T01:49:55.283Z,79
2015-07-06T01:50:13.518Z,79
2015-07-06T01:50:31.752Z,79
2015-07-06T01:50:49.990Z,79
2015-07-06T01:51:08.240Z,79
2015-07-06T01:51:26.474Z,79
2015-07-06T01:51:44.724Z,79
2015-07-06T01:52:02.945Z,79
2015-07-06T01:52:21.179Z,79
2015-07-06T01:52:39.413Z,79
2015-07-06T01:52:57.665Z,79
2015-07-06T01:53:15.900Z,79
2015-07-06T01:53:34.134Z,79
2015-07-06T01:53:52.369Z,79
2015-07-06T01:54:10.605Z,79
2015-07-06T01:54:28.839Z,79
2015-07-06T01:54:47.074Z,79
2015-07-06T01:55:05.310Z,80
2015-07-06T01:55:23.544Z,80
2015-07-06T01:55:41.779Z,80
2015-07-06T01:56:00.013Z,80
2015-07-06T01:56:18.250Z,80
2015-07-06T01:56:36.484Z,80
2015-07-06T01:56:54.734Z,81
2015-07-06T01:57:12.970Z,81
2015-07-06T01:57:31.189Z,81
2015-07-06T01:57:49.423Z,81
2015-07-06T01:58:07.673Z,81
2015-07-06T01:58:25.909Z,81
2015-07-06T01:58:44.159Z,81
2015-07-06T01:59:02.393Z,81
2015-07-06T01:59:20.646Z,81
2015-07-06T01:59:38.881Z,81
2015-07-06T01:59:57.115Z,81
2015-07-06T02:00:15.349Z,81
2015-07-06T02:00:33.601Z,81
2015-07-06T02:00:51.836Z,81
2015-07-06T02:01:10.070Z,81
2015-07-06T02:01:28.306Z,81
2015-07-06T02:01:46.556Z,80
2015-07-06T02:02:04.791Z,80
2015-07-06T02:02:23.025Z,80
2015-07-06T02:02:41.277Z,80
2015-07-06T02:02:59.512Z,80
2015-07-06T02:03:17.746Z,80
2015-07-06T02:03:35.998Z,80
2015-07-06T02:03:54.232Z,79
2015-07-06T02:04:12.467Z,79
2015-07-06T02:04:30.701Z,79
2015-07-06T02:04:48.953Z,79
2015-07-06T02:05:07.172Z,79
2015-07-06T02:05:25.422Z,79
2015-07-06T02:05:43.658Z,79
2015-07-06T02:06:01.893Z,79
2015-07-06T02:06:20.127Z,79
2015-07-06T02:06:38.361Z,79
2015-07-06T02:06:56.614Z,79
2015-07-06T02:07:14.849Z,79
2015-07-06T02:07:33.083Z,79
2015-07-06T02:07:51.318Z,79
2015-07-06T02:08:09.553Z,79
2015-07-06T02:08:27.803Z,79
2015-07-06T02:08:46.037Z,79
2015-07-06T02:09:04.274Z,79
2015-07-06T02:09:22.508Z,79
2015-07-06T02:09:40.742Z,79
2015-07-06T02:09:58.980Z,79
2015-07-06T02:10:17.214Z,79
2015-07-06T02:10:35.464Z,79
2015-07-06T02:10:53.698Z,79
2015-07-06T02:11:11.934Z,79
2015-07-06T02:11:30.184Z,79
2015-07-06T02:11:48.418Z,80
2015-07-06T02:12:06.670Z,80
2015-07-06T02:12:24.905Z,80
2015-07-06T02:12:43.139Z,80
2015-07-06T02:13:01.389Z,80
2015-07-06T02:13:19.626Z,80
2015-07-06T02:13:37.861Z,80
2015-07-06T02:13:56.111Z,80
2015-07-06T02:14:14.346Z,80
2015-07-06T02:14:32.580Z,80
2015-07-06T02:14:50.815Z,80
2015-07-06T02:15:09.049Z,81
2015-07-06T02:15:27.302Z,81
2015-07-06T02:15:45.537Z,81
2015-07-06T02:16:03.771Z,81
2015-07-06T02:16:22.023Z,81
2015-07-06T02:16:40.242Z,81
2015-07-06T02:16:58.492Z,81
2015-07-06T02:17:16.726Z,81
2015-07-06T02:17:34.962Z,81
2015-07-06T02:17:53.197Z,81
2015-07-06T02:18:11.431Z,81
2015-07-06T02:18:29.683Z,81
2015-07-06T02:18:47.918Z,81
2015-07-06T02:19:06.152Z,81
2015-07-06T02:19:24.386Z,81
2015-07-06T02:19:42.638Z,81
2015-07-06T02:20:00.873Z,81
2015-07-06T02:20:19.107Z,81
2015-07-06T02:20:37.343Z,81
2015-07-06T02:20:55.578Z,81
2015-07-06T02:21:13.828Z,81
2015-07-06T02:21:32.062Z,81
2015-07-06T02:21:50.299Z,81
2015-07-06T02:22:08.549Z,81
2015-07-06T02:22:26.783Z,81
2015-07-06T02:22:45.019Z,81
2015-07-06T02:23:03.254Z,81
2015-07-06T02:23:21.488Z,81
2015-07-06T02:23:39.722Z,81
2015-07-06T02:23:57.973Z,81
2015-07-06T02:24:16.208Z,81
2015-07-06T02:24:34.442Z,81
2015-07-06T02:24:52.680Z,81
2015-07-06T02:25:10.914Z,81
2015-07-06T02:25:29.148Z,81
2015-07-06T02:25:47.383Z,81
2015-07-06T02:26:05.619Z,81
2015-07-06T02:26:23.885Z,81
2015-07-06T02:26:42.103Z,81
2015-07-06T02:27:00.340Z,81
2015-07-06T02:27:18.590Z,81
2015-07-06T02:27:36.824Z,81
2015-07-06T02:27:55.074Z,81
2015-07-06T02:28:13.311Z,81
2015-07-06T02:28:31.545Z,81
2015-07-06T02:28:49.779Z,81
2015-07-06T02:29:08.016Z,81
2015-07-06T02:29:26.250Z,81
2015-07-06T02:29:44.500Z,81
2015-07-06T02:30:02.734Z,81
2015-07-06T02:30:21.033Z,81
2015-07-06T02:30:39.221Z,81
2015-07-06T02:30:57.471Z,81
2015-07-06T02:31:15.707Z,81
2015-07-06T02:31:33.942Z,81
2015-07-06T02:31:52.176Z,82
2015-07-06T02:32:10.410Z,82
2015-07-06T02:32:28.663Z,82
2015-07-06T02:32:46.898Z,81
2015-07-06T02:33:05.132Z,82
2015-07-06T02:33:23.367Z,82
2015-07-06T02:33:41.617Z,82
2015-07-06T02:33:59.852Z,82
2015-07-06T02:34:18.086Z,82
2015-07-06T02:34:36.323Z,82
2015-07-06T02:34:54.557Z,82
2015-07-06T02:35:12.807Z,82
2015-07-06T02:35:31.044Z,82
2015-07-06T02:35:49.294Z,82
2015-07-06T02:36:07.513Z,82
2015-07-06T02:36:25.747Z,82
2015-07-06T02:36:43.983Z,82
2015-07-06T02:37:02.233Z,82
2015-07-06T02:37:20.467Z,82
2015-07-06T02:37:38.705Z,82
2015-07-06T02:37:56.955Z,82
2015-07-06T02:38:15.189Z,82
2015-07-06T02:38:33.423Z,82
2015-07-06T02:38:51.660Z,82
2015-07-06T02:39:09.910Z,82
2015-07-06T02:39:28.144Z,82
2015-07-06T02:39:46.380Z,82
2015-07-06T02:40:04.615Z,82
2015-07-06T02:40:22.849Z,82
2015-07-06T02:40:41.099Z,82
2015-07-06T02:40:59.335Z,82
2015-07-06T02:41:17.569Z,82
2015-07-06T02:41:35.803Z,82
2015-07-06T02:41:54.056Z,82
2015-07-06T02:42:12.291Z,82
2015-07-06T02:42:30.525Z,82
2015-07-06T02:42:48.759Z,82
2015-07-06T02:43:06.995Z,82
2015-07-06T02:43:25.245Z,82
2015-07-06T02:43:43.479Z,82
2015-07-06T02:44:01.717Z,82
2015-07-06T02:44:19.935Z,82
2015-07-06T02:44:38.185Z,82
2015-07-06T02:44:56.420Z,82
2015-07-06T02:45:14.656Z,82
2015-07-06T02:45:32.890Z,82
2015-07-06T02:45:51.125Z,82
2015-07-06T02:46:09.376Z,82
2015-07-06T02:46:27.610Z,82
2015-07-06T02:46:45.845Z,82
2015-07-06T02:47:04.079Z,82
2015-07-06T02:47:22.316Z,82
2015-07-06T02:47:40.551Z,82
2015-07-06T02:47:58.785Z,82
2015-07-06T02:48:17.021Z,82
2015-07-06T02:48:35.271Z,82
2015-07-06T02:48:53.506Z,82
2015-07-06T02:49:11.740Z,82
2015-07-06T02:49:29.992Z,81
2015-07-06T02:49:48.242Z,81
2015-07-06T02:50:06.461Z,81
2015-07-06T02:50:24.713Z,81
2015-07-06T02:50:42.947Z,81
2015-07-06T02:51:01.182Z,81
2015-07-06T02:51:19.432Z,81
2015-07-06T02:51:37.668Z,81
2015-07-06T02:51:55.902Z,81
2015-07-06T02:52:14.137Z,81
2015-07-06T02:52:32.373Z,81
2015-07-06T02:52:50.608Z,81
2015-07-06T02:53:08.858Z,81
2015-07-06T02:53:27.092Z,81
2015-07-06T02:53:45.344Z,81
2015-07-06T02:54:03.594Z,81
2015-07-06T02:54:21.844Z,81
2015-07-06T02:54:40.096Z,80
2015-07-06T02:54:58.330Z,80
2015-07-06T02:55:16.565Z,80
2015-07-06T02:55:34.799Z,80
2015-07-06T02:55:53.051Z,79
2015-07-06T02:56:11.285Z,79
2015-07-06T02:56:29.520Z,79
2015-07-06T02:56:47.756Z,79
2015-07-06T02:57:06.006Z,78
2015-07-06T02:57:24.241Z,78
2015-07-06T02:57:42.475Z,78
2015-07-06T02:58:00.711Z,78
2015-07-06T02:58:18.961Z,78
2015-07-06T02:58:37.196Z,78
2015-07-06T02:58:55.432Z,78
2015-07-06T02:59:13.682Z,77
2015-07-06T02:59:31.916Z,77
2015-07-06T02:59:50.166Z,77
2015-07-06T03:00:08.403Z,77
2015-07-06T03:00:26.637Z,77
2015-07-06T03:00:44.872Z,77
2015-07-06T03:01:03.125Z,77
2015-07-06T03:01:21.359Z,77
2015-07-06T03:01:39.609Z,77
2015-07-06T03:01:57.843Z,77
2015-07-06T03:02:16.080Z,77
2015-07-06T03:02:34.330Z,77
2015-07-06T03:02:52.564Z,77
2015-07-06T03:03:10.800Z,77
2015-07-06T03:03:29.035Z,77
2015-07-06T03:03:47.269Z,77
2015-07-06T03:04:05.504Z,77
2015-07-06T03:04:23.739Z,78
2015-07-06T03:04:41.989Z,78
2015-07-06T03:05:00.223Z,78
2015-07-06T03:05:18.461Z,78
2015-07-06T03:05:36.695Z,78
2015-07-06T03:05:54.945Z,78
2015-07-06T03:06:13.179Z,78
2015-07-06T03:06:31.415Z,78
2015-07-06T03:06:49.665Z,78
2015-07-06T03:07:07.899Z,78
2015-07-06T03:07:26.152Z,78
2015-07-06T03:07:44.387Z,78
2015-07-06T03:08:02.621Z,79
2015-07-06T03:08:20.871Z,79
2015-07-06T03:08:39.107Z,79
2015-07-06T03:08:57.357Z,79
2015-07-06T03:09:15.592Z,79
2015-07-06T03:09:33.828Z,79
2015-07-06T03:09:52.062Z,79
2015-07-06T03:10:10.297Z,79
2015-07-06T03:10:28.531Z,79
2015-07-06T03:10:46.783Z,79
2015-07-06T03:11:05.018Z,79
2015-07-06T03:11:23.252Z,80
2015-07-06T03:11:41.488Z,80
2015-07-06T03:11:59.723Z,80
2015-07-06T03:12:17.973Z,80
2015-07-06T03:12:36.223Z,80
2015-07-06T03:12:54.443Z,80
2015-07-06T03:13:12.678Z,80
2015-07-06T03:13:30.912Z,81
2015-07-06T03:13:49.164Z,81
2015-07-06T03:14:07.399Z,81
2015-07-06T03:14:25.633Z,81
2015-07-06T03:14:43.883Z,81
2015-07-06T03:15:02.119Z,81
2015-07-06T03:15:20.354Z,81
2015-07-06T03:15:38.604Z,81
2015-07-06T03:15:56.840Z,81
2015-07-06T03:16:15.074Z,81
2015-07-06T03:16:33.324Z,81
2015-07-06T03:16:51.559Z,81
2015-07-06T03:17:09.811Z,81
2015-07-06T03:17:28.045Z,81
2015-07-06T03:17:46.280Z,81
2015-07-06T03:18:04.516Z,81
2015-07-06T03:18:22.750Z,81
2015-07-06T03:18:41.000Z,81
2015-07-06T03:18:59.235Z,81
2015-07-06T03:19:17.471Z,81
2015-07-06T03:19:35.721Z,81
2015-07-06T03:19:53.955Z,81
2015-07-06T03:20:12.192Z,81
2015-07-06T03:20:30.442Z,81
2015-07-06T03:20:48.676Z,81
2015-07-06T03:21:06.926Z,81
2015-07-06T03:21:25.163Z,81
2015-07-06T03:21:43.397Z,81
2015-07-06T03:22:01.631Z,81
2015-07-06T03:22:19.883Z,81
2015-07-06T03:22:38.118Z,81
2015-07-06T03:22:56.352Z,81
2015-07-06T03:23:14.586Z,81
2015-07-06T03:23:32.823Z,81
2015-07-06T03:23:51.073Z,81
2015-07-06T03:24:09.307Z,81
2015-07-06T03:24:27.544Z,81
2015-07-06T03:24:45.794Z,81
2015-07-06T03:25:04.028Z,81
2015-07-06T03:25:22.262Z,81
2015-07-06T03:25:40.500Z,81
2015-07-06T03:25:58.750Z,81
2015-07-06T03:26:16.984Z,81
2015-07-06T03:26:35.219Z,81
2015-07-06T03:26:53.469Z,81
2015-07-06T03:27:11.704Z,81
2015-07-06T03:27:29.938Z,81
2015-07-06T03:27:48.191Z,82
2015-07-06T03:28:06.426Z,81
2015-07-06T03:28:24.660Z,82
2015-07-06T03:28:42.895Z,82
2015-07-06T03:29:01.145Z,82
2015-07-06T03:29:19.380Z,82
2015-07-06T03:29:37.614Z,82
2015-07-06T03:29:55.851Z,82
2015-07-06T03:30:14.086Z,82
2015-07-06T03:30:32.336Z,82
2015-07-06T03:30:50.572Z,82
2015-07-06T03:31:08.822Z,82
2015-07-06T03:31:27.057Z,82
2015-07-06T03:31:45.307Z,81
2015-07-06T03:32:03.527Z,81
2015-07-06T03:32:21.762Z,81
2015-07-06T03:32:40.012Z,81
2015-07-06T03:32:58.248Z,81
2015-07-06T03:33:16.482Z,81
2015-07-06T03:33:34.717Z,81
2015-07-06T03:33:52.951Z,82
2015-07-06T03:34:11.188Z,82
2015-07-06T03:34:29.438Z,82
2015-07-06T03:34:47.672Z,82
2015-07-06T03:35:05.908Z,82
2015-07-06T03:35:24.158Z,82
2015-07-06T03:35:42.408Z,82
2015-07-06T03:36:00.627Z,82
2015-07-06T03:36:18.863Z,81
2015-07-06T03:36:37.113Z,81
2015-07-06T03:36:55.348Z,81
2015-07-06T03:37:13.584Z,81
2015-07-06T03:37:31.819Z,81
2015-07-06T03:37:50.053Z,81
2015-07-06T03:38:08.303Z,81
2015-07-06T03:38:26.539Z,81
2015-07-06T03:38:44.774Z,81
2015-07-06T03:39:03.024Z,81
2015-07-06T03:39:21.260Z,81
2015-07-06T03:39:39.494Z,81
2015-07-06T03:39:57.729Z,81
2015-07-06T03:40:15.979Z,81
2015-07-06T03:40:34.215Z,81
2015-07-06T03:40:52.450Z,81
2015-07-06T03:41:10.700Z,81
2015-07-06T03:41:28.936Z,81
2015-07-06T03:41:47.170Z,81
2015-07-06T03:42:05.405Z,81
2015-07-06T03:42:23.639Z,81
2015-07-06T03:42:41.875Z,81
2015-07-06T03:43:00.110Z,81
2015-07-06T03:43:18.360Z,81
2015-07-06T03:43:36.596Z,81
2015-07-06T03:43:54.831Z,81
2015-07-06T03:44:13.065Z,81
2015-07-06T03:44:31.315Z,81
2015-07-06T03:44:49.551Z,81
2015-07-06T03:45:07.786Z,81
2015-07-06T03:45:26.020Z,81
2015-07-06T03:45:44.272Z,81
2015-07-06T03:46:02.506Z,81
2015-07-06T03:46:20.741Z,81
2015-07-06T03:46:38.975Z,81
2015-07-06T03:46:57.227Z,81
2015-07-06T03:47:15.462Z,81
2015-07-06T03:47:33.696Z,81
2015-07-06T03:47:51.964Z,81
2015-07-06T03:48:10.182Z,81
2015-07-06T03:48:28.417Z,81
2015-07-06T03:48:46.651Z,81
2015-07-06T03:49:04.887Z,81
2015-07-06T03:49:23.122Z,81
2015-07-06T03:49:41.356Z,81
2015-07-06T03:49:59.593Z,81
2015-07-06T03:50:17.843Z,81
2015-07-06T03:50:36.077Z,81
2015-07-06T03:50:54.311Z,81
2015-07-06T03:51:12.564Z,81
2015-07-06T03:51:30.799Z,81
2015-07-06T03:51:49.033Z,81
2015-07-06T03:52:07.268Z,81
2015-07-06T03:52:25.518Z,81
2015-07-06T03:52:43.753Z,81
2015-07-06T03:53:01.987Z,81
2015-07-06T03:53:20.225Z,81
2015-07-06T03:53:38.459Z,81
2015-07-06T03:53:56.693Z,81
2015-07-06T03:54:14.930Z,81
2015-07-06T03:54:33.164Z,81
2015-07-06T03:54:51.414Z,81
2015-07-06T03:55:09.648Z,81
2015-07-06T03:55:27.868Z,81
2015-07-06T03:55:46.118Z,81
2015-07-06T03:56:04.353Z,80
2015-07-06T03:56:22.589Z,80
2015-07-06T03:56:40.823Z,80
2015-07-06T03:56:59.058Z,81
2015-07-06T03:57:17.308Z,81
2015-07-06T03:57:35.545Z,81
2015-07-06T03:57:53.779Z,81
2015-07-06T03:58:12.014Z,81
2015-07-06T03:58:30.250Z,81
2015-07-06T03:58:48.485Z,80
2015-07-06T03:59:06.735Z,80
2015-07-06T03:59:24.969Z,80
2015-07-06T03:59:43.205Z,79
2015-07-06T04:00:01.455Z,79
2015-07-06T04:00:19.690Z,79
2015-07-06T04:00:37.926Z,79
2015-07-06T04:00:56.176Z,79
2015-07-06T04:01:14.410Z,79
2015-07-06T04:01:32.645Z,79
2015-07-06T04:01:50.897Z,79
2015-07-06T04:02:09.131Z,79
2015-07-06T04:02:27.366Z,79
2015-07-06T04:02:45.602Z,79
2015-07-06T04:03:03.836Z,79
2015-07-06T04:03:22.086Z,79
2015-07-06T04:03:40.321Z,79
2015-07-06T04:03:58.557Z,78
2015-07-06T04:04:16.807Z,78
2015-07-06T04:04:35.041Z,78
2015-07-06T04:04:53.278Z,78
2015-07-06T04:05:11.528Z,78
2015-07-06T04:05:29.762Z,78
2015-07-06T04:05:47.997Z,78
2015-07-06T04:06:06.233Z,78
2015-07-06T04:06:24.467Z,78
2015-07-06T04:06:42.717Z,78
2015-07-06T04:07:00.954Z,78
2015-07-06T04:07:19.204Z,78
2015-07-06T04:07:37.438Z,78
2015-07-06T04:07:55.672Z,78
2015-07-06T04:08:13.909Z,78
2015-07-06T04:08:32.143Z,78
2015-07-06T04:08:50.378Z,78
2015-07-06T04:09:08.646Z,78
2015-07-06T04:09:26.865Z,78
2015-07-06T04:09:45.099Z,78
2015-07-06T04:10:03.349Z,78
2015-07-06T04:10:21.585Z,78
2015-07-06T04:10:39.819Z,78
2015-07-06T04:10:58.069Z,78
2015-07-06T04:11:16.306Z,78
2015-07-06T04:11:34.541Z,77
2015-07-06T04:11:52.775Z,77
2015-07-06T04:12:11.025Z,77
2015-07-06T04:12:29.261Z,77
2015-07-06T04:12:47.511Z,77
2015-07-06T04:13:05.745Z,77
2015-07-06T04:13:23.997Z,77
2015-07-06T04:13:42.231Z,77
2015-07-06T04:14:00.466Z,77
2015-07-06T04:14:18.716Z,77
2015-07-06T04:14:36.952Z,77
2015-07-06T04:14:55.202Z,77
2015-07-06T04:15:13.436Z,77
2015-07-06T04:15:31.674Z,77
2015-07-06T04:15:49.924Z,77
2015-07-06T04:16:08.158Z,77
2015-07-06T04:16:26.408Z,77
2015-07-06T04:16:44.644Z,77
2015-07-06T04:17:02.878Z,77
2015-07-06T04:17:21.112Z,77
2015-07-06T04:17:39.365Z,77
2015-07-06T04:17:57.600Z,77
2015-07-06T04:18:15.850Z,77
2015-07-06T04:18:34.084Z,77
2015-07-06T04:18:52.319Z,77
2015-07-06T04:19:10.554Z,77
2015-07-06T04:19:28.788Z,77
2015-07-06T04:19:47.041Z,77
2015-07-06T04:20:05.276Z,77